• Join FlightAware (Why Join?)
  • Login
  • US Flag 
09:33PM EDT


 

Airport Tracker/Info


-or-


 

Live Flight TrackerFlight Track Log ✈ UAL4093 ✈ 14-Apr-2013 ✈ KEWR - CYHZ

Flight Track Log - Related Links

Times and Time Zones

All times are in EDT time to prevent confusion due to time zone crossing. See the UAL4093 flight status page for this flight to view local times or setup timezone preferences in your user account.

Time Position Orientation Groundspeed Altitude Reporting Facility
EDT Latitude Longitude Course Direction KTS MPH feet Rate Location/Type
12:16AM 40.7167 -74.1500 37° Northeast 155 178 1,000  Level New York TRACON
12:17AM 40.7500 -74.1167 37° Northeast 204 235 2,800 1,740 Climbing New York TRACON
12:18AM 40.8000 -74.0667 37° Northeast 249 287 4,400 2,040 Climbing New York TRACON
12:20AM 40.8836 -73.9528 46° Northeast 285 328 8,100 2,160 Climbing Boston Center
12:21AM 40.9325 -73.8742 51° Northeast 279 321 10,100 1,380 Climbing Boston Center
12:22AM 40.9878 -73.7847 51° Northeast 285 328 10,900 900 Climbing Boston Center
12:23AM 41.0492 -73.6869 50° Northeast 324 373 12,000 1,080 Climbing Boston Center
12:24AM 41.1025 -73.5942 53° Northeast 348 400 13,100 1,020 Climbing Boston Center
12:25AM 41.1764 -73.4769 50° Northeast 365 420 14,300 1,200 Climbing Boston Center
12:26AM 41.2547 -73.3486 51° Northeast 370 426 15,800 1,260 Climbing Boston Center
12:27AM 41.3181 -73.2472 50° Northeast 376 433 16,900 960 Climbing Boston Center
12:28AM 41.3917 -73.1208 52° Northeast 383 441 17,800 840 Climbing Boston Center
12:29AM 41.4425 -73.0022 60° Northeast 398 458 18,600 600 Climbing Boston Center
12:30AM 41.5014 -72.8669 60° Northeast 409 471 19,100 480 Climbing Boston Center
12:31AM 41.5644 -72.7286 59° Northeast 422 486 19,600 720 Climbing Boston Center
12:32AM 41.6272 -72.5817 60° Northeast 435 501 20,600 1,080 Climbing Boston Center
12:33AM 41.6875 -72.4400 60° Northeast 440 506 21,800 1,140 Climbing Boston Center
12:34AM 41.7481 -72.2956 61° Northeast 440 506 22,900 1,140 Climbing Boston Center
12:35AM 41.8061 -72.1533 61° Northeast 440 506 24,100 1,140 Climbing Boston Center
12:36AM 41.8681 -72.0081 60° Northeast 440 506 25,200 1,020 Climbing Boston Center
12:37AM 41.9281 -71.8653 61° Northeast 440 506 26,200 960 Climbing Boston Center
12:38AM 41.9875 -71.7250 60° Northeast 440 506 27,200 960 Climbing Boston Center
12:39AM 42.0450 -71.5847 61° Northeast 440 506 28,200 900 Climbing Boston Center
12:40AM 42.1083 -71.4439 59° Northeast 440 506 29,100 900 Climbing Boston Center
12:41AM 42.1694 -71.2972 61° Northeast 440 506 30,100 960 Climbing Boston Center
12:42AM 42.2283 -71.1531 61° Northeast 440 506 31,100 900 Climbing Boston Center
12:43AM 42.2850 -71.0089 62° Northeast 440 506 32,000 900 Climbing Boston Center
12:44AM 42.3456 -70.8586 61° Northeast 440 506 32,900 660 Climbing Boston Center
12:45AM 42.4058 -70.7025 62° Northeast 445 512 33,400 480 Climbing Boston Center
12:46AM 42.4681 -70.5431 62° Northeast 464 534 33,900 540 Climbing Boston Center
12:47AM 42.5317 -70.3806 62° Northeast 475 547 34,500 540 Climbing Boston Center
12:48AM 42.5953 -70.2147 62° Northeast 485 558 35,000 240 Climbing Boston Center
12:49AM 42.6650 -70.0456 61° Northeast 491 565 35,000  Level Boston Center
12:50AM 42.7339 -69.8678 62° Northeast 506 582 35,000  Level Boston Center
12:51AM 42.8008 -69.6922 62° Northeast 512 589 35,000  Level Boston Center
12:52AM 42.8750 -69.4992 62° Northeast 517 595 35,000  Level Boston Center
12:53AM 42.9453 -69.3197 62° Northeast 523 602 35,000  Level Boston Center
12:54AM 43.0092 -69.1406 64° Northeast 523 602 35,000  Level Boston Center
12:55AM 43.0747 -68.9636 63° Northeast 523 602 35,000  Level Boston Center
12:56AM 43.1344 -68.8064 62° Northeast 523 602 35,000  Level Boston Center
12:57AM 43.1978 -68.6344 63° Northeast 512 589 35,000  Level Boston Center
12:58AM 43.2547 -68.4714 64° Northeast 494 568 35,000 -60 Level Boston Center
12:59AM 43.3136 -68.3075 64° Northeast 482 555 34,900  Descending Boston Center
01:00AM 43.3761 -68.1406 63° Northeast 482 555 35,000  Climbing Boston Center
01:01AM 43.4361 -67.9644 65° Northeast 487 560 35,000 -60 Level Boston Center
01:02AM 43.4981 -67.7939 63° Northeast 492 566 34,900 -60 Descending Boston Center
01:03AM 43.5578 -67.6231 64° Northeast 492 566 34,900  Level Boston Center
01:04AM 43.6153 -67.4547 65° Northeast 487 560 34,900  Level Boston Center
01:05AM 43.6706 -67.2950 64° Northeast 474 545 34,900  Level Boston Center
01:06AM 43.7261 -67.1381 64° Northeast 463 533 34,900  Level Boston Center
01:07AM 43.7667 -66.9500 73° East 460 529 35,000  Climbing Moncton Center
01:08AM 43.8333 -66.7833 61° Northeast 470 541 35,000  Level Moncton Center
01:09AM 43.9000 -66.6000 63° Northeast 480 552 35,000  Level Moncton Center
01:10AM 43.9500 -66.4333 67° East 490 564 35,000  Level Moncton Center
01:11AM 44.0000 -66.2833 65° Northeast 490 564 35,000  Level Moncton Center
01:12AM 44.0500 -66.1000 69° East 470 541 35,000 -180 Level Moncton Center
01:13AM 44.1167 -65.9333 61° Northeast 470 541 34,700 -960 Descending Moncton Center
01:14AM 44.1667 -65.7667 67° East 470 541 33,100 -1,920 Descending Moncton Center
01:15AM 44.2333 -65.6167 58° Northeast 480 552 30,900 -2,220 Descending Moncton Center
01:16AM 44.2833 -65.4167 71° East 470 541 28,700 -2,100 Descending Moncton Center
01:17AM 44.3333 -65.2667 65° Northeast 470 541 26,800 -2,040 Descending Moncton Center
01:18AM 44.3833 -65.1000 67° East 460 529 24,700 -2,040 Descending Moncton Center
01:19AM 44.4333 -64.9667 62° Northeast 440 506 22,800 -2,100 Descending Moncton Center
01:20AM 44.4833 -64.8000 67° East 420 483 20,500 -2,280 Descending Moncton Center
01:21AM 44.5167 -64.6500 73° East 420 483 18,300 -2,220 Descending Moncton Center
01:22AM 44.5667 -64.5167 62° Northeast 400 460 16,100 -2,340 Descending Moncton Center
01:23AM 44.6333 -64.4000 51° Northeast 380 437 13,700 -2,280 Descending Moncton Center
01:24AM 44.6833 -64.2833 59° Northeast 350 403 11,600 -1,740 Descending Moncton Center
01:25AM 44.7333 -64.1833 55° Northeast 310 357 10,300 -1,500 Descending Moncton Center
01:26AM 44.7667 -64.0833 65° Northeast 280 322 8,700 -1,620 Descending Moncton Center
01:27AM 44.8167 -64.0000 50° Northeast 270 311 7,100 -1,500 Descending Moncton Center
01:28AM 44.8500 -63.9333 55° Northeast 260 299 5,700 -1,500 Descending Moncton Center
01:29AM 44.8833 -63.8333 65° Northeast 250 288 4,100 -1,320 Descending Moncton Center
01:30AM 44.9167 -63.7667 55° Northeast 230 265 3,100 -600 Descending Moncton Center
01:31AM 44.9500 -63.6833 61° Northeast 210 242 3,000 -60 Descending Moncton Center
01:32AM 44.9833 -63.6167 55° Northeast 200 230 3,000  Level Moncton Center
01:33AM 45.0167 -63.5667 47° Northeast 210 242 3,000  Level Moncton Center
01:34AM 45.0500 -63.5000 55° Northeast 210 242 3,000 -60 Level Moncton Center
01:35AM 45.0833 -63.4333 55° Northeast 210 242 2,900 -300 Descending Moncton Center
01:36AM 45.0500 -63.3500 119° Southeast 200 230 2,400 -300 Descending Moncton Center
01:37AM 45.0000 -63.3500 180° South 190 219 2,400  Level Moncton Center
01:38AM 44.9667 -63.4000 227° Southwest 190 219 2,400 -240 Level Moncton Center
01:39AM 44.9333 -63.4333 215° Southwest 160 184 2,000 -600 Descending Moncton Center
01:40AM 44.9000 -63.4833 227° Southwest 140 161 1,200 -780 Descending Moncton Center
01:41AM 44.8667 -63.5000 200° South 140 161 500 -360 Descending Moncton Center
01:42AM 44.8333 -63.5167 200° South 140 161 500  Level Moncton Center